Time;durP1;ratioP1;P1;durP2;ratioP2;P2;SDS_P1;SDS_P2;PMS_P1;PMS_P2;Temp;Humidity;BMP_temperature;BMP_pressure;BME280_temperature;BME280_humidity;BME280_pressure;Samples;Min_cycle;Max_cycle;Signal;HPM_P1;HPM_P2
2022/07/21 00:00:24;;;;;;;4.28;2.38;;;21.60;99.90;;;;;;6149015;23;20040;-80
2022/07/21 00:02:52;;;;;;;8.68;3.63;;;21.50;99.90;;;;;;6155908;23;20353;-80
2022/07/21 00:05:21;;;;;;;2.45;2.03;;;21.50;99.90;;;;;;6158847;23;20024;-80
2022/07/21 00:07:50;;;;;;;2.45;2.25;;;21.40;99.90;;;;;;6150996;23;20026;-80
2022/07/21 00:10:19;;;;;;;2.60;2.40;;;21.30;99.90;;;;;;6148337;23;20025;-80
2022/07/21 00:12:47;;;;;;;2.47;2.22;;;21.30;99.90;;;;;;6159321;23;20036;-80
2022/07/21 00:15:16;;;;;;;5.15;3.00;;;21.30;99.90;;;;;;6148387;23;20025;-80
2022/07/21 00:17:44;;;;;;;4.97;2.85;;;21.30;99.90;;;;;;6086880;23;20017;-80
2022/07/21 00:20:13;;;;;;;3.05;2.50;;;21.30;99.90;;;;;;6148034;23;20369;-80
2022/07/21 00:22:42;;;;;;;3.78;2.83;;;21.30;99.90;;;;;;6156012;23;20040;-80
2022/07/21 00:25:12;;;;;;;2.65;2.45;;;21.30;99.90;;;;;;6158322;23;20010;-80
2022/07/21 00:27:40;;;;;;;2.75;2.25;;;21.30;99.90;;;;;;6122497;23;20330;-80
2022/07/21 00:30:09;;;;;;;5.30;2.45;;;21.10;99.90;;;;;;6108344;23;20020;-80
2022/07/21 00:32:37;;;;;;;2.30;2.10;;;21.10;99.90;;;;;;6146337;23;20469;-80
2022/07/21 00:35:06;;;;;;;4.40;2.92;;;21.00;99.90;;;;;;6128159;23;20026;-80
2022/07/21 00:37:35;;;;;;;2.45;2.25;;;21.00;99.90;;;;;;6122338;23;20021;-80
2022/07/21 00:40:04;;;;;;;2.97;2.30;;;21.00;99.90;;;;;;6150156;23;20030;-80
2022/07/21 00:42:32;;;;;;;2.40;2.20;;;21.00;99.90;;;;;;6155122;23;20026;-80
2022/07/21 00:45:02;;;;;;;2.90;2.70;;;20.70;99.90;;;;;;6132907;23;20025;-80
2022/07/21 00:47:34;;;;;;;3.13;2.93;;;20.40;99.90;;;;;;6126605;23;20753;-80
2022/07/21 00:50:13;;;;;;;18.60;3.20;;;20.20;99.90;;;;;;6121170;23;20028;-80
2022/07/21 00:52:40;;;;;;;3.80;3.10;;;20.10;99.90;;;;;;6123384;23;20028;-80
2022/07/21 00:55:11;;;;;;;11.07;3.50;;;20.10;99.90;;;;;;6152114;23;20022;-80
2022/07/21 00:57:39;;;;;;;;;;;20.00;99.90;;;;;;6159178;23;20018;-80
2022/07/21 01:00:11;;;;;;;3.33;2.72;;;20.10;99.90;;;;;;6149727;23;19920;-80
2022/07/21 01:02:39;;;;;;;5.03;2.78;;;20.10;99.90;;;;;;6148320;23;20025;-80
2022/07/21 01:05:12;;;;;;;3.50;3.20;;;20.10;99.90;;;;;;6157336;23;20014;-80
2022/07/21 01:07:42;;;;;;;2.80;2.60;;;20.10;99.90;;;;;;6144883;23;20028;-80
2022/07/21 01:10:12;;;;;;;2.88;2.67;;;20.10;99.90;;;;;;6156946;23;20024;-80
2022/07/21 01:12:41;;;;;;;3.28;2.97;;;20.20;99.90;;;;;;6158749;23;20054;-81
2022/07/21 01:15:10;;;;;;;4.00;3.38;;;20.30;99.90;;;;;;6153518;23;20516;-80
2022/07/21 01:17:38;;;;;;;2.40;2.17;;;20.40;99.90;;;;;;6157374;23;20468;-80
2022/07/21 01:20:09;;;;;;;4.40;2.70;;;20.50;99.90;;;;;;6148901;23;20029;-80
2022/07/21 01:22:38;;;;;;;;;;;20.50;99.90;;;;;;6155598;23;20017;-80
2022/07/21 01:25:07;;;;;;;3.35;3.05;;;20.60;99.90;;;;;;6158300;23;20323;-80
2022/07/21 01:27:35;;;;;;;4.80;3.05;;;20.60;99.90;;;;;;6151928;23;20021;-80
2022/07/21 01:30:07;;;;;;;3.20;2.55;;;20.50;99.90;;;;;;6158184;23;20013;-80
2022/07/21 01:32:37;;;;;;;9.02;3.65;;;20.60;99.90;;;;;;6145532;23;20029;-80
2022/07/21 01:35:07;;;;;;;4.00;2.33;;;20.50;99.90;;;;;;6153418;23;20030;-80
2022/07/21 01:37:38;;;;;;;3.25;2.85;;;20.50;99.90;;;;;;6158521;23;20013;-80
2022/07/21 01:42:59;;;;;;;5.00;2.67;;;20.40;99.90;;;;;;6147811;23;20021;-80
2022/07/21 01:45:28;;;;;;;3.08;2.78;;;20.50;99.90;;;;;;6158133;23;20018;-80
2022/07/21 01:47:56;;;;;;;4.07;3.28;;;20.50;99.90;;;;;;6148337;23;20064;-80
2022/07/21 01:50:26;;;;;;;3.17;2.80;;;20.40;99.90;;;;;;6156721;23;20022;-80
2022/07/21 01:52:58;;;;;;;3.75;2.45;;;20.30;99.90;;;;;;6122288;23;20021;-80
2022/07/21 01:55:28;;;;;;;8.07;4.28;;;20.30;99.90;;;;;;6150174;23;20022;-80
2022/07/21 01:57:56;;;;;;;2.42;2.22;;;20.20;99.90;;;;;;6157567;23;20013;-80
2022/07/21 02:00:24;;;;;;;2.83;2.55;;;20.20;99.90;;;;;;6147378;23;20030;-80
2022/07/21 02:02:52;;;;;;;2.67;2.28;;;20.20;99.90;;;;;;6154783;23;20021;-80
2022/07/21 02:05:20;;;;;;;3.10;2.80;;;20.10;99.90;;;;;;6158332;23;20029;-80
2022/07/21 02:07:48;;;;;;;3.58;2.60;;;20.10;99.90;;;;;;6149732;23;20032;-80
2022/07/21 02:10:16;;;;;;;6.13;2.50;;;20.10;99.90;;;;;;6130297;23;20702;-80
2022/07/21 02:12:43;;;;;;;2.55;2.03;;;20.10;99.90;;;;;;6158303;23;20342;-80
2022/07/21 02:15:11;;;;;;;3.42;2.88;;;20.00;99.90;;;;;;6152966;23;20033;-79
2022/07/21 02:17:39;;;;;;;4.22;2.90;;;20.00;99.90;;;;;;6122203;23;20393;-82
2022/07/21 02:20:07;;;;;;;4.22;3.30;;;19.80;99.90;;;;;;6121360;23;20660;-80
2022/07/21 02:22:35;;;;;;;3.15;2.85;;;19.40;99.90;;;;;;6153818;23;20017;-80
2022/07/21 02:25:03;;;;;;;8.15;3.30;;;19.30;99.90;;;;;;6132289;23;20014;-80
2022/07/21 02:27:31;;;;;;;3.63;3.22;;;19.00;99.90;;;;;;6146059;23;20029;-80
2022/07/21 02:29:58;;;;;;;5.13;2.72;;;18.90;99.90;;;;;;6132138;23;20032;-80
2022/07/21 02:32:26;;;;;;;3.25;2.90;;;18.90;99.90;;;;;;6121598;23;20642;-80
2022/07/21 02:34:54;;;;;;;3.13;2.92;;;18.90;99.90;;;;;;6121310;23;20030;-80
2022/07/21 02:37:22;;;;;;;4.68;3.30;;;19.00;99.90;;;;;;6122062;23;20017;-80
2022/07/21 02:39:50;;;;;;;7.82;3.53;;;18.90;99.90;;;;;;6120978;23;20025;-80
2022/07/21 02:42:21;;;;;;;4.45;2.88;;;18.90;99.90;;;;;;6121663;23;20481;-80
2022/07/21 02:44:51;;;;;;;6.75;3.67;;;18.90;99.90;;;;;;6157355;23;20621;-80
2022/07/21 02:47:18;;;;;;;5.60;3.67;;;18.90;99.90;;;;;;6126865;23;20021;-80
2022/07/21 02:49:47;;;;;;;3.17;2.90;;;18.90;99.90;;;;;;6121942;23;20018;-80
2022/07/21 02:52:15;;;;;;;5.28;3.83;;;18.90;99.90;;;;;;6146842;23;20029;-80
2022/07/21 02:54:43;;;;;;;8.82;3.65;;;18.90;99.90;;;;;;6121783;23;20025;-80
2022/07/21 02:57:11;;;;;;;3.42;2.80;;;18.80;99.90;;;;;;6158097;23;20032;-80
2022/07/21 02:59:41;;;;;;;3.53;2.65;;;18.80;99.90;;;;;;6151621;23;20030;-80
2022/07/21 03:02:09;;;;;;;3.72;3.20;;;18.60;99.90;;;;;;6158974;23;20014;-80
2022/07/21 03:04:36;;;;;;;5.03;3.35;;;18.30;99.90;;;;;;6159901;23;20453;-80
2022/07/21 03:07:04;;;;;;;3.85;2.97;;;18.30;99.90;;;;;;6154905;23;20484;-80
2022/07/21 03:09:32;;;;;;;5.03;3.63;;;18.20;99.90;;;;;;6159970;23;20020;-80
2022/07/21 03:12:00;;;;;;;4.13;3.72;;;18.30;99.90;;;;;;6151604;23;20349;-80
2022/07/21 03:14:27;;;;;;;5.72;3.22;;;18.20;99.90;;;;;;6156551;23;20022;-80
2022/07/21 03:16:57;;;;;;;5.80;3.22;;;18.20;99.90;;;;;;6159818;23;20017;-79
2022/07/21 03:19:25;;;;;;;15.80;3.35;;;18.30;99.90;;;;;;6150132;23;20033;-80
2022/07/21 03:21:52;;;;;;;5.30;3.38;;;18.40;99.90;;;;;;6160179;23;20013;-80
2022/07/21 03:24:20;;;;;;;4.03;3.63;;;18.40;99.90;;;;;;6123441;23;20025;-79
2022/07/21 03:26:48;;;;;;;4.30;4.00;;;18.50;99.90;;;;;;6130077;23;20028;-80
2022/07/21 03:29:16;;;;;;;6.40;4.50;;;18.40;99.90;;;;;;6133662;23;20014;-80
2022/07/21 03:31:43;;;;;;;3.78;2.50;;;18.30;99.90;;;;;;6151279;23;20029;-80
2022/07/21 03:34:11;;;;;;;3.30;3.00;;;18.20;99.90;;;;;;6157927;23;20453;-79
2022/07/21 03:36:39;;;;;;;6.78;3.15;;;18.20;99.90;;;;;;6098147;23;20033;-80
2022/07/21 03:39:07;;;;;;;4.85;3.03;;;18.20;99.90;;;;;;6122334;23;20018;-80
2022/07/21 03:41:34;;;;;;;3.40;2.55;;;18.20;99.90;;;;;;6122805;23;20028;-80
2022/07/21 03:44:02;;;;;;;3.53;3.03;;;18.20;99.90;;;;;;6121447;23;20021;-80
2022/07/21 03:46:30;;;;;;;4.07;3.30;;;18.20;99.90;;;;;;6123463;23;20025;-81
2022/07/21 03:48:58;;;;;;;3.10;2.42;;;18.30;99.90;;;;;;6149762;23;20018;-81
2022/07/21 03:51:26;;;;;;;4.00;2.83;;;18.30;99.90;;;;;;6150979;23;20033;-78
2022/07/21 03:53:54;;;;;;;13.68;3.38;;;18.30;99.90;;;;;;6122293;23;20029;-78
2022/07/21 03:56:21;;;;;;;3.15;2.83;;;18.30;99.90;;;;;;6122479;23;20415;-79
2022/07/21 03:58:49;;;;;;;5.35;3.88;;;18.30;99.90;;;;;;6072461;23;20014;-79
2022/07/21 04:01:17;;;;;;;4.38;3.65;;;18.40;99.90;;;;;;6157603;23;20017;-79
2022/07/21 04:03:45;;;;;;;4.55;3.17;;;18.40;99.90;;;;;;6073699;23;20021;-79
2022/07/21 04:06:13;;;;;;;5.20;3.78;;;18.30;99.90;;;;;;6121765;23;20021;-79
2022/07/21 04:08:41;;;;;;;3.25;2.47;;;18.20;99.90;;;;;;6131907;23;20025;-79
2022/07/21 04:11:09;;;;;;;6.03;3.33;;;18.20;99.90;;;;;;6152719;23;20026;-79
2022/07/21 04:13:37;;;;;;;3.95;3.60;;;18.20;99.90;;;;;;6158594;23;20018;-79
2022/07/21 04:16:05;;;;;;;4.13;3.67;;;18.20;99.90;;;;;;6123671;23;20327;-79
2022/07/21 04:18:33;;;;;;;3.58;3.25;;;18.20;99.90;;;;;;6150701;23;20026;-79
2022/07/21 04:21:00;;;;;;;4.38;3.95;;;18.20;99.90;;;;;;6119382;23;20017;-79
2022/07/21 04:23:29;;;;;;;7.25;4.38;;;18.30;99.90;;;;;;6120307;23;20029;-80
2022/07/21 04:25:57;;;;;;;3.42;3.08;;;18.40;99.90;;;;;;6146475;23;20028;-79
2022/07/21 04:28:25;;;;;;;4.53;3.88;;;18.40;99.90;;;;;;6145823;23;20032;-80
2022/07/21 04:30:52;;;;;;;5.30;3.90;;;18.50;99.90;;;;;;6120216;23;20021;-80
2022/07/21 04:33:20;;;;;;;3.22;3.03;;;18.60;99.90;;;;;;6122207;23;20026;-79
2022/07/21 04:35:48;;;;;;;4.47;3.60;;;18.50;99.90;;;;;;6122070;23;20025;-79
2022/07/21 04:38:17;;;;;;;8.63;5.13;;;18.50;99.90;;;;;;6156579;23;20017;-79
2022/07/21 04:40:45;;;;;;;4.28;3.85;;;18.60;99.90;;;;;;6158051;23;20014;-80
2022/07/21 04:43:12;;;;;;;7.25;4.35;;;18.70;99.90;;;;;;6152690;23;20022;-80
2022/07/21 04:45:40;;;;;;;4.88;4.05;;;18.70;99.90;;;;;;6123623;23;20405;-80
2022/07/21 04:48:09;;;;;;;5.85;4.22;;;18.90;99.90;;;;;;6150243;23;20453;-80
2022/07/21 04:50:37;;;;;;;5.95;3.97;;;19.00;99.90;;;;;;6155285;23;20040;-80
2022/07/21 04:53:04;;;;;;;5.35;4.40;;;19.10;99.90;;;;;;6132620;23;20021;-80
2022/07/21 04:55:32;;;;;;;9.05;7.07;;;19.30;99.90;;;;;;6122520;23;20025;-80
2022/07/21 04:58:00;;;;;;;12.13;7.45;;;19.50;99.90;;;;;;6123945;23;20018;-79
2022/07/21 05:00:28;;;;;;;9.77;7.72;;;20.00;99.90;;;;;;6122283;23;20473;-79
2022/07/21 05:02:56;;;;;;;7.97;6.65;;;20.20;99.90;;;;;;6146869;23;20026;-79
2022/07/21 05:05:25;;;;;;;13.63;7.78;;;20.40;99.90;;;;;;6148245;23;20018;-80
2022/07/21 05:07:54;;;;;;;9.13;6.97;;;20.40;99.90;;;;;;6122359;23;20021;-80
2022/07/21 05:10:27;;;;;;;11.75;7.90;;;20.40;99.90;;;;;;6156497;23;20018;-81
2022/07/21 05:12:55;;;;;;;8.45;6.15;;;20.40;99.90;;;;;;6133063;23;20528;-79
2022/07/21 05:15:23;;;;;;;7.93;6.57;;;20.40;99.90;;;;;;6152909;23;20826;-79
2022/07/21 05:17:50;;;;;;;9.60;7.32;;;20.30;99.90;;;;;;6156360;23;20032;-79
2022/07/21 05:20:18;;;;;;;9.48;7.88;;;20.30;99.90;;;;;;6147358;23;20026;-79
2022/07/21 05:22:46;;;;;;;7.95;7.18;;;20.20;99.90;;;;;;6129517;23;20021;-80
2022/07/21 05:25:13;;;;;;;10.48;7.95;;;20.20;99.90;;;;;;6158962;23;20017;-79
2022/07/21 05:27:41;;;;;;;9.20;8.10;;;20.10;99.90;;;;;;6125885;23;20033;-80
2022/07/21 05:30:10;;;;;;;12.23;7.43;;;20.10;99.90;;;;;;6157508;23;20014;-79
2022/07/21 05:32:38;;;;;;;15.15;8.50;;;20.10;99.90;;;;;;6158533;23;20025;-79
2022/07/21 05:35:14;;;;;;;10.75;7.75;;;20.10;99.90;;;;;;6153143;23;20054;-79
2022/07/21 05:37:42;;;;;;;8.35;7.50;;;20.10;99.90;;;;;;6157914;23;20025;-81
2022/07/21 05:40:10;;;;;;;8.38;7.47;;;20.10;99.90;;;;;;6149907;23;20025;-80
2022/07/21 05:42:39;;;;;;;8.43;7.43;;;20.00;99.90;;;;;;6155833;23;20334;-80
2022/07/21 05:45:08;;;;;;;8.85;7.30;;;20.10;99.90;;;;;;6158202;23;20037;-80
2022/07/21 05:47:36;;;;;;;9.52;7.97;;;20.10;99.90;;;;;;6151831;23;20033;-81
2022/07/21 05:50:05;;;;;;;11.18;7.22;;;20.10;99.90;;;;;;6149316;23;20025;-80
2022/07/21 05:52:32;;;;;;;9.15;7.70;;;20.10;99.90;;;;;;6148569;23;20025;-79
2022/07/21 05:55:01;;;;;;;12.93;8.32;;;20.10;99.90;;;;;;6154683;23;20033;-80
2022/07/21 05:57:29;;;;;;;10.65;9.18;;;20.20;99.90;;;;;;6157072;23;20013;-79
2022/07/21 05:59:57;;;;;;;10.25;7.85;;;20.20;99.90;;;;;;6150563;23;20230;-80
2022/07/21 06:02:26;;;;;;;21.70;10.55;;;20.20;99.90;;;;;;6156785;23;20014;-80
2022/07/21 06:04:54;;;;;;;15.07;6.78;;;20.30;99.90;;;;;;6123140;23;20349;-81
2022/07/21 06:07:21;;;;;;;10.65;8.18;;;20.30;99.90;;;;;;6127051;23;20029;-80
2022/07/21 06:09:49;;;;;;;8.95;7.82;;;20.40;99.90;;;;;;6159038;23;20028;-79
2022/07/21 06:12:17;;;;;;;15.38;10.68;;;20.40;99.90;;;;;;6121656;23;20033;-80
2022/07/21 06:14:45;;;;;;;14.90;8.57;;;20.50;99.90;;;;;;6097230;23;20021;-83
2022/07/21 06:17:12;;;;;;;11.75;7.85;;;20.50;99.90;;;;;;6098907;23;20319;-80
2022/07/21 06:19:40;;;;;;;16.45;9.18;;;20.50;99.90;;;;;;6147171;23;20025;-80
2022/07/21 06:22:08;;;;;;;11.00;9.07;;;20.50;99.90;;;;;;6158288;23;20020;-81
2022/07/21 06:24:36;;;;;;;12.52;7.60;;;20.60;99.90;;;;;;6158474;23;20021;-80
2022/07/21 06:27:04;;;;;;;14.85;7.63;;;20.70;99.90;;;;;;6154133;23;20044;-80
2022/07/21 06:29:33;;;;;;;11.27;7.78;;;20.70;99.90;;;;;;6158889;23;20017;-80
2022/07/21 06:32:01;;;;;;;22.30;9.55;;;20.70;99.90;;;;;;6150186;23;20025;-80
2022/07/21 06:34:29;;;;;;;10.90;7.85;;;20.70;99.90;;;;;;6156684;23;20028;-80
2022/07/21 06:36:57;;;;;;;14.45;8.18;;;20.80;99.90;;;;;;6159201;23;20018;-79
2022/07/21 06:39:24;;;;;;;9.02;8.15;;;20.80;99.90;;;;;;6148557;23;20476;-77
2022/07/21 06:41:52;;;;;;;12.85;8.98;;;20.80;99.90;;;;;;6159467;23;20349;-80
2022/07/21 06:44:20;;;;;;;9.90;8.05;;;20.80;99.90;;;;;;6150726;23;20021;-80
2022/07/21 06:46:48;;;;;;;12.35;8.38;;;20.80;99.90;;;;;;6147319;23;20017;-77
2022/07/21 06:49:17;;;;;;;10.18;7.30;;;20.80;99.90;;;;;;6150894;23;20020;-85
2022/07/21 06:51:54;;;;;;;9.85;8.73;;;20.80;99.90;;;;;;6153191;23;20461;-87
2022/07/21 06:54:21;;;;;;;9.70;8.25;;;20.80;99.90;;;;;;6158319;23;20018;-81
2022/07/21 06:56:49;;;;;;;12.00;8.05;;;20.60;99.90;;;;;;6135030;23;20014;-80
2022/07/21 06:59:18;;;;;;;15.85;9.25;;;20.60;99.90;;;;;;6154119;23;20021;-79
2022/07/21 07:01:45;;;;;;;11.80;8.65;;;20.60;99.90;;;;;;6157363;23;20017;-79
2022/07/21 07:04:13;;;;;;;9.07;8.18;;;20.70;99.90;;;;;;6123109;23;20026;-79
2022/07/21 07:06:42;;;;;;;8.45;7.03;;;20.70;99.90;;;;;;6131439;23;20345;-81
2022/07/21 07:09:09;;;;;;;7.60;5.60;;;20.70;99.90;;;;;;6150034;23;20025;-80
2022/07/21 07:11:39;;;;;;;9.32;8.43;;;20.60;99.90;;;;;;6153492;23;20037;-81
2022/07/21 07:14:06;;;;;;;15.10;8.43;;;20.60;99.90;;;;;;6125427;23;20021;-81
2022/07/21 07:16:45;;;;;;;11.65;8.80;;;20.60;99.90;;;;;;6132174;23;20029;-84
2022/07/21 07:19:13;;;;;;;12.30;8.18;;;20.60;99.90;;;;;;6146925;23;20021;-80
2022/07/21 07:21:41;;;;;;;11.02;8.32;;;20.50;99.90;;;;;;6097631;23;20025;-79
2022/07/21 07:24:08;;;;;;;10.45;9.15;;;20.40;99.90;;;;;;6123823;23;20029;-79
2022/07/21 07:26:36;;;;;;;11.55;7.63;;;20.40;99.90;;;;;;6122054;23;20026;-78
2022/07/21 07:29:04;;;;;;;15.60;6.60;;;20.30;99.90;;;;;;6147174;23;20017;-78
2022/07/21 07:31:32;;;;;;;10.57;7.15;;;20.30;99.90;;;;;;6151707;23;20350;-78
2022/07/21 07:34:00;;;;;;;9.85;7.03;;;20.30;99.90;;;;;;6158511;23;20036;-78
2022/07/21 07:36:29;;;;;;;25.55;7.55;;;20.30;99.90;;;;;;6144444;23;20022;-79
2022/07/21 07:38:57;;;;;;;14.65;8.40;;;20.30;99.90;;;;;;6145697;23;20026;-79
2022/07/21 07:41:26;;;;;;;9.52;8.27;;;20.40;99.90;;;;;;6156675;23;20660;-79
2022/07/21 07:43:55;;;;;;;10.35;8.07;;;20.30;99.90;;;;;;6150425;23;20033;-79
2022/07/21 07:46:23;;;;;;;9.00;7.22;;;20.30;99.90;;;;;;6129860;23;20319;-79
2022/07/21 07:48:51;;;;;;;13.65;7.18;;;20.30;99.90;;;;;;6158294;23;20014;-78
2022/07/21 07:51:19;;;;;;;11.60;8.00;;;20.20;99.90;;;;;;6151982;23;20377;-79
2022/07/21 07:53:47;;;;;;;9.30;8.13;;;20.10;99.90;;;;;;6158276;23;20024;-79
2022/07/21 07:56:14;;;;;;;12.68;7.75;;;20.00;99.90;;;;;;6148542;23;20032;-79
2022/07/21 07:58:42;;;;;;;7.00;6.30;;;20.00;99.90;;;;;;6147726;23;20021;-80
2022/07/21 08:01:10;;;;;;;10.25;7.63;;;20.00;99.90;;;;;;6158305;23;20029;-79
2022/07/21 08:03:41;;;;;;;7.85;6.38;;;20.10;99.90;;;;;;6150717;23;20036;-80
2022/07/21 08:06:09;;;;;;;11.82;6.70;;;20.10;99.90;;;;;;6157114;23;20017;-80
2022/07/21 08:08:37;;;;;;;7.60;6.80;;;20.10;99.90;;;;;;6158014;23;20020;-79
2022/07/21 08:11:05;;;;;;;7.97;7.18;;;20.10;99.90;;;;;;6153235;23;20017;-80
2022/07/21 08:13:33;;;;;;;9.80;7.80;;;20.10;99.90;;;;;;6157897;23;20021;-79
2022/07/21 08:16:00;;;;;;;9.60;8.55;;;20.20;99.90;;;;;;6123703;23;20029;-79
2022/07/21 08:18:28;;;;;;;12.10;8.73;;;20.30;99.90;;;;;;6152584;23;20037;-79
2022/07/21 08:20:56;;;;;;;10.23;7.63;;;20.30;99.90;;;;;;6158632;23;20024;-79
2022/07/21 08:23:24;;;;;;;11.02;8.80;;;20.40;99.90;;;;;;6126177;23;20029;-78
2022/07/21 08:25:56;;;;;;;52.35;12.57;;;20.50;99.90;;;;;;6106890;23;20464;-79
2022/07/21 08:28:31;;;;;;;10.75;8.77;;;20.60;99.90;;;;;;6148429;23;20326;-80
2022/07/21 08:30:59;;;;;;;12.30;9.00;;;20.70;99.90;;;;;;6146944;23;20028;-79
2022/07/21 08:33:27;;;;;;;13.68;8.48;;;20.80;99.90;;;;;;6158498;23;20123;-79
2022/07/21 08:35:54;;;;;;;17.55;8.38;;;20.80;99.90;;;;;;6150120;23;20033;-79
2022/07/21 08:38:23;;;;;;;9.40;6.93;;;20.90;99.90;;;;;;6156644;23;20013;-80
2022/07/21 08:40:50;;;;;;;9.40;8.00;;;21.00;99.90;;;;;;6158058;23;20013;-78
2022/07/21 08:43:18;;;;;;;9.82;8.38;;;21.00;99.90;;;;;;6153122;23;20025;-79
2022/07/21 08:45:47;;;;;;;8.90;7.97;;;21.00;99.90;;;;;;6158385;23;20017;-80
2022/07/21 08:48:19;;;;;;;10.43;8.68;;;21.00;99.90;;;;;;6149188;23;20048;-80
2022/07/21 08:50:47;;;;;;;74.75;14.07;;;21.20;99.90;;;;;;6129504;23;20032;-80
2022/07/21 08:53:15;;;;;;;10.20;8.10;;;21.30;99.90;;;;;;6122190;23;20028;-79
2022/07/21 08:55:42;;;;;;;11.65;8.73;;;21.50;99.90;;;;;;6150931;23;20036;-79
2022/07/21 08:58:12;;;;;;;8.82;8.02;;;21.40;99.90;;;;;;6129709;23;20014;-80
2022/07/21 09:00:43;;;;;;;10.50;7.72;;;21.40;99.90;;;;;;6158524;23;20017;-80
2022/07/21 09:03:12;;;;;;;9.15;8.27;;;21.40;99.90;;;;;;6151388;23;20032;-80
2022/07/21 09:05:42;;;;;;;11.45;10.13;;;21.30;99.90;;;;;;6158231;23;20020;-80
2022/07/21 09:08:10;;;;;;;10.55;9.20;;;21.30;99.90;;;;;;6148396;23;20034;-80
2022/07/21 09:10:38;;;;;;;8.85;7.72;;;21.30;99.90;;;;;;6129584;23;20025;-80
2022/07/21 09:13:07;;;;;;;12.18;8.07;;;21.30;99.90;;;;;;6122350;23;20022;-79
2022/07/21 09:15:36;;;;;;;7.93;7.13;;;21.30;99.90;;;;;;6151614;23;20436;-80
2022/07/21 09:18:11;;;;;;;12.38;8.20;;;21.30;99.90;;;;;;6154751;23;20437;-78
2022/07/21 09:20:48;;;;;;;46.95;11.10;;;21.40;99.90;;;;;;6147341;23;20028;-80
2022/07/21 09:23:18;;;;;;;16.02;9.25;;;21.50;99.90;;;;;;6152726;23;20021;-79
2022/07/21 09:25:54;;;;;;;10.18;7.53;;;21.50;99.90;;;;;;6158008;23;20441;-79
2022/07/21 09:28:30;;;;;;;11.80;9.05;;;21.60;99.90;;;;;;6148388;23;20032;-80
2022/07/21 09:31:00;;;;;;;88.35;14.38;;;21.70;99.90;;;;;;6146458;23;20476;-79
2022/07/21 09:33:38;;;;;;;10.03;7.77;;;21.70;99.90;;;;;;6146809;23;20028;-79
2022/07/21 09:36:11;;;;;;;9.68;7.47;;;21.60;99.90;;;;;;6148451;23;20025;-80
2022/07/21 09:38:42;;;;;;;9.05;7.10;;;21.60;99.90;;;;;;6155739;23;20029;-80
2022/07/21 09:41:17;;;;;;;;;;;21.70;99.90;;;;;;6158906;23;20032;-79
2022/07/21 09:43:47;;;;;;;8.00;6.93;;;21.80;99.90;;;;;;6150408;23;19920;-78
2022/07/21 09:46:18;;;;;;;11.30;8.38;;;21.80;99.90;;;;;;6157066;23;20017;-80
2022/07/21 09:48:54;;;;;;;9.27;7.55;;;21.70;99.90;;;;;;6157659;23;20476;-79
2022/07/21 09:51:43;;;;;;;10.25;7.97;;;21.70;99.90;;;;;;6147770;23;20029;-80
2022/07/21 09:54:13;;;;;;;10.95;8.10;;;21.70;99.90;;;;;;6157663;23;20021;-81
2022/07/21 09:56:43;;;;;;;13.65;8.85;;;21.60;99.90;;;;;;6157301;23;20350;-81
2022/07/21 09:59:13;;;;;;;10.00;8.48;;;21.60;99.90;;;;;;6154041;23;20579;-81
2022/07/21 10:01:41;;;;;;;11.00;9.85;;;21.60;99.90;;;;;;6156840;23;20381;-81
2022/07/21 10:04:10;;;;;;;10.85;8.10;;;21.60;99.90;;;;;;6150178;23;20037;-81
2022/07/21 10:06:39;;;;;;;12.52;9.23;;;21.60;99.90;;;;;;6148110;23;20021;-81
2022/07/21 10:09:09;;;;;;;14.93;10.82;;;21.60;99.90;;;;;;6159118;23;20025;-82
2022/07/21 10:11:42;;;;;;;14.32;9.68;;;21.50;99.90;;;;;;6151669;23;20029;-82
2022/07/21 10:14:13;;;;;;;11.35;8.77;;;21.50;99.90;;;;;;6158469;23;20029;-81
2022/07/21 10:16:41;;;;;;;13.77;9.05;;;21.50;99.90;;;;;;6132113;23;20013;-80
2022/07/21 10:19:28;;;;;;;10.30;8.40;;;21.40;99.90;;;;;;6149209;23;20029;-80
2022/07/21 10:22:21;;;;;;;11.10;8.90;;;21.30;99.90;;;;;;6158043;23;20020;-80
2022/07/21 10:24:49;;;;;;;;;;;21.30;99.90;;;;;;6129682;23;20028;-80
2022/07/21 10:27:17;;;;;;;15.23;10.40;;;21.40;99.90;;;;;;6149760;23;19931;-80
2022/07/21 10:29:47;;;;;;;8.95;7.82;;;21.40;99.90;;;;;;6145669;23;20021;-80
2022/07/21 10:32:18;;;;;;;9.23;8.40;;;21.40;99.90;;;;;;6148823;23;20029;-81
2022/07/21 10:34:48;;;;;;;;;;;21.30;99.90;;;;;;6154811;23;20032;-80
2022/07/21 10:37:39;;;;;;;12.05;7.65;;;21.30;99.90;;;;;;6146783;23;19928;-79
2022/07/21 10:40:33;;;;;;;11.05;8.32;;;21.20;99.90;;;;;;6106834;23;20032;-80
2022/07/21 10:43:02;;;;;;;9.02;8.13;;;21.20;99.90;;;;;;6145505;23;20021;-80
2022/07/21 10:45:32;;;;;;;10.38;8.50;;;21.30;99.90;;;;;;6121166;23;20449;-79
2022/07/21 10:48:02;;;;;;;12.57;8.80;;;21.20;99.90;;;;;;6147094;23;20469;-80
2022/07/21 10:50:35;;;;;;;10.23;9.18;;;21.20;99.90;;;;;;6152433;23;20040;-80
2022/07/21 10:53:05;;;;;;;17.30;7.32;;;21.20;99.90;;;;;;6155562;23;20350;-79
2022/07/21 10:55:36;;;;;;;12.27;9.07;;;21.10;99.90;;;;;;6119671;23;20022;-79
2022/07/21 10:58:22;;;;;;;9.63;7.75;;;21.10;99.90;;;;;;6152256;23;20342;-79
2022/07/21 11:01:03;;;;;;;13.25;7.80;;;21.00;99.90;;;;;;6150550;23;20038;-80
2022/07/21 11:03:39;;;;;;;12.05;8.75;;;21.10;99.90;;;;;;6148809;23;20021;-81
2022/07/21 11:06:27;;;;;;;17.30;10.88;;;21.10;99.90;;;;;;6131803;23;20580;-82
2022/07/21 11:09:03;;;;;;;9.23;8.20;;;21.10;99.90;;;;;;6154413;23;20030;-80
2022/07/21 11:11:37;;;;;;;9.73;8.50;;;21.00;99.90;;;;;;6145516;23;20033;-81
2022/07/21 11:14:17;;;;;;;13.65;9.23;;;21.10;99.90;;;;;;6156072;23;20454;-80
2022/07/21 11:17:01;;;;;;;15.25;8.00;;;21.10;99.90;;;;;;6159482;23;20022;-87
2022/07/21 11:19:50;;;;;;;9.75;8.75;;;21.10;99.90;;;;;;6146572;23;20157;-83
2022/07/21 11:22:26;;;;;;;9.52;8.57;;;21.20;99.90;;;;;;6159109;23;20017;-83
2022/07/21 11:25:00;;;;;;;12.45;8.00;;;21.20;99.90;;;;;;6149596;23;20021;-79
2022/07/21 11:27:32;;;;;;;10.75;9.55;;;21.00;99.90;;;;;;6147931;23;20025;-80
2022/07/21 11:30:06;;;;;;;10.57;9.25;;;20.90;99.90;;;;;;6158520;23;20955;-78
2022/07/21 11:32:34;;;;;;;10.57;9.27;;;20.90;99.90;;;;;;6146561;23;20072;-79
2022/07/21 11:35:05;;;;;;;14.13;8.73;;;20.90;99.90;;;;;;6154292;23;20754;-79
2022/07/21 11:37:45;;;;;;;11.55;7.85;;;20.90;99.90;;;;;;6157279;23;20017;-81
2022/07/21 11:40:18;;;;;;;11.50;9.00;;;20.90;99.90;;;;;;6150675;23;20022;-81
2022/07/21 11:42:50;;;;;;;12.18;8.50;;;21.00;99.90;;;;;;6156728;23;20017;-81
2022/07/21 11:45:28;;;;;;;9.48;8.57;;;21.00;99.90;;;;;;6160609;23;20013;-82
2022/07/21 11:47:56;;;;;;;11.05;9.20;;;21.10;99.90;;;;;;6152136;23;20036;-82
2022/07/21 11:50:25;;;;;;;12.18;8.80;;;21.10;99.90;;;;;;6122398;23;20021;-81
2022/07/21 11:52:53;;;;;;;10.18;9.05;;;21.00;99.90;;;;;;6123232;23;20709;-80
2022/07/21 11:55:31;;;;;;;14.48;7.95;;;21.00;99.90;;;;;;6122104;23;20630;-86
2022/07/21 11:57:59;;;;;;;11.13;8.95;;;21.00;99.90;;;;;;6098317;23;20464;-79
2022/07/21 12:00:27;;;;;;;13.30;9.18;;;21.10;99.90;;;;;;6149063;23;20472;-80
2022/07/21 12:03:05;;;;;;;12.23;8.80;;;21.00;99.90;;;;;;6155379;23;20021;-82
2022/07/21 12:05:37;;;;;;;13.90;10.18;;;21.00;99.90;;;;;;6160924;23;20517;-82
2022/07/21 12:08:05;;;;;;;12.90;8.88;;;20.90;99.90;;;;;;6151397;23;20025;-80
2022/07/21 12:10:37;;;;;;;12.85;9.05;;;21.00;99.90;;;;;;6157891;23;20018;-83
2022/07/21 12:13:07;;;;;;;11.73;10.45;;;21.00;99.90;;;;;;6160909;23;20018;-81
2022/07/21 12:15:37;;;;;;;15.38;11.02;;;21.00;99.90;;;;;;6153224;23;20025;-80
2022/07/21 12:18:21;;;;;;;12.90;10.07;;;21.10;99.90;;;;;;6157954;23;20017;-81
2022/07/21 12:20:49;;;;;;;13.85;9.77;;;21.00;99.90;;;;;;6156776;23;20036;-81
2022/07/21 12:23:26;;;;;;;10.73;8.60;;;21.00;99.90;;;;;;6154084;23;20194;-80
2022/07/21 12:26:00;;;;;;;13.60;9.38;;;21.20;99.90;;;;;;6160483;23;20024;-83
2022/07/21 12:28:56;;;;;;;18.40;9.82;;;21.40;99.90;;;;;;6150722;23;20028;-84
2022/07/21 12:31:25;;;;;;;16.73;9.43;;;21.50;99.90;;;;;;6152747;23;20029;-85
2022/07/21 12:33:56;;;;;;;12.15;9.77;;;21.60;99.90;;;;;;6160403;23;20062;-83
2022/07/21 12:36:45;;;;;;;12.20;9.32;;;21.70;99.90;;;;;;6131708;23;20032;-82
2022/07/21 12:42:10;;;;;;;19.17;10.73;;;21.70;99.90;;;;;;6159492;23;20032;-84
2022/07/21 12:44:39;;;;;;;13.10;10.25;;;21.70;99.90;;;;;;6149832;23;20032;-84
2022/07/21 12:47:19;;;;;;;16.02;9.68;;;21.70;99.90;;;;;;6155924;23;20377;-83
2022/07/21 12:49:56;;;;;;;20.13;7.93;;;21.60;99.90;;;;;;6160362;23;20468;-85
2022/07/21 12:52:47;;;;;;;8.98;8.02;;;21.50;99.90;;;;;;6128892;23;20461;-86
2022/07/21 12:55:15;;;;;;;12.77;9.60;;;21.50;99.90;;;;;;6122633;23;20036;-85
2022/07/21 12:57:43;;;;;;;12.63;8.77;;;21.40;99.90;;;;;;6124040;23;20021;-84
2022/07/21 13:00:12;;;;;;;12.05;10.75;;;21.40;99.90;;;;;;6148071;23;20026;-84
2022/07/21 13:02:51;;;;;;;13.40;8.40;;;21.40;99.90;;;;;;6123208;23;20017;-82